Time;durP1;ratioP1;P1;durP2;ratioP2;P2;SDS_P1;SDS_P2;PMS_P1;PMS_P2;Temp;Humidity;BMP_temperature;BMP_pressure;BME280_temperature;BME280_humidity;BME280_pressure;Samples;Min_cycle;Max_cycle;Signal;HPM_P1;HPM_P2
2022/05/29 00:01:49;;;;;;;9.33;2.50;;;10.30;99.90;9.60;99461;;;;597579;236;24095;-78
2022/05/29 00:04:17;;;;;;;5.50;2.13;;;10.40;99.90;9.70;99457;;;;597580;236;24049;-76
2022/05/29 00:06:46;;;;;;;2.20;1.97;;;10.40;99.90;9.70;99454;;;;597679;236;24131;-79
2022/05/29 00:09:14;;;;;;;2.70;1.83;;;10.40;99.90;9.70;99447;;;;597669;236;24124;-79
2022/05/29 00:11:41;;;;;;;3.00;2.20;;;10.40;99.90;9.70;99446;;;;597736;236;24082;-78
2022/05/29 00:14:13;;;;;;;9.40;3.00;;;10.40;99.90;9.70;99447;;;;592670;236;34984;-77
2022/05/29 00:16:37;;;;;;;2.83;1.90;;;10.40;99.90;9.70;99446;;;;597592;236;24078;-81
2022/05/29 00:19:05;;;;;;;4.77;2.53;;;10.40;99.90;9.70;99439;;;;575426;247;24231;-81
2022/05/29 00:21:37;;;;;;;2.97;1.67;;;10.40;99.90;9.70;99449;;;;597493;236;24096;-73
2022/05/29 00:24:02;;;;;;;2.93;2.03;;;10.40;99.90;9.60;99435;;;;596605;236;24117;-72
2022/05/29 00:26:30;;;;;;;4.20;2.13;;;10.40;99.90;9.60;99437;;;;595346;236;24055;-73
2022/05/29 00:28:58;;;;;;;2.13;2.03;;;10.30;99.90;9.60;99438;;;;596701;236;24041;-73
2022/05/29 00:31:26;;;;;;;5.37;2.00;;;10.30;99.90;9.60;99439;;;;596707;236;24065;-72
2022/05/29 00:33:53;;;;;;;4.10;1.77;;;10.30;99.90;9.60;99444;;;;597141;236;24015;-74
2022/05/29 00:36:21;;;;;;;2.93;2.07;;;10.30;99.90;9.60;99438;;;;575378;246;24102;-71
2022/05/29 00:38:50;;;;;;;3.53;2.43;;;10.30;99.90;9.50;99437;;;;598106;236;24015;-71
2022/05/29 00:41:24;;;;;;;1.70;1.60;;;10.20;99.90;9.50;99441;;;;598056;236;25068;-74
2022/05/29 00:44:16;;;;;;;1.80;1.67;;;10.20;99.90;9.50;99434;;;;597323;236;24037;-73
2022/05/29 00:46:44;;;;;;;3.03;2.00;;;10.20;99.90;9.50;99430;;;;596737;236;24166;-76
2022/05/29 00:49:15;;;;;;;5.10;2.27;;;10.30;99.90;9.60;99437;;;;597444;236;24055;-72
2022/05/29 00:51:48;;;;;;;2.53;2.33;;;10.30;99.90;9.60;99437;;;;597193;236;24108;-77
2022/05/29 00:54:16;;;;;;;7.20;2.23;;;10.40;99.90;9.70;99444;;;;597225;236;24053;-78
2022/05/29 00:56:47;;;;;;;2.47;2.27;;;10.40;99.90;9.70;99443;;;;597121;236;24054;-81
2022/05/29 00:59:15;;;;;;;2.97;2.10;;;10.50;99.90;9.80;99444;;;;596419;236;24099;-80
2022/05/29 01:01:43;;;;;;;3.70;2.40;;;10.50;99.90;9.80;99442;;;;595435;236;24082;-81
2022/05/29 01:04:14;;;;;;;2.60;2.17;;;10.50;99.90;9.80;99453;;;;596872;236;24028;-81
2022/05/29 01:06:42;;;;;;;3.73;2.00;;;10.50;99.90;9.80;99456;;;;605901;236;24065;-81
2022/05/29 01:09:07;;;;;;;4.30;2.03;;;10.50;99.90;9.80;99453;;;;596351;236;24084;-79
2022/05/29 01:11:46;;;;;;;1.87;1.77;;;10.60;99.90;9.80;99448;;;;596121;236;24050;-71
2022/05/29 01:14:31;;;;;;;1.97;1.87;;;10.60;99.90;9.80;99448;;;;596290;236;24040;-72
2022/05/29 01:17:18;;;;;;;4.60;2.10;;;10.50;99.90;9.80;99455;;;;595496;236;24040;-73
2022/05/29 01:20:13;;;;;;;3.87;2.30;;;10.50;99.90;9.80;99453;;;;596325;236;24102;-73
2022/05/29 01:23:24;;;;;;;3.77;1.83;;;10.50;99.90;9.80;99453;;;;596555;236;24097;-75
2022/05/29 01:26:10;;;;;;;3.17;1.97;;;10.50;99.90;9.70;99453;;;;596282;236;24067;-71
2022/05/29 01:28:53;;;;;;;4.28;2.67;;;10.40;99.90;9.70;99456;;;;591416;236;35081;-71
2022/05/29 01:31:42;;;;;;;5.13;2.10;;;10.50;99.90;9.70;99456;;;;595064;236;24029;-70
2022/05/29 01:34:13;;;;;;;4.77;2.37;;;10.50;99.90;9.70;99468;;;;607280;236;25141;-71
2022/05/29 01:37:12;;;;;;;3.70;2.40;;;10.50;99.90;9.80;99455;;;;596047;236;24080;-74
2022/05/29 01:40:03;;;;;;;5.03;2.03;;;10.50;99.90;9.80;99456;;;;596605;236;24071;-72
2022/05/29 01:42:57;;;;;;;2.20;2.10;;;10.50;99.90;9.80;99461;;;;582063;236;24056;-71
2022/05/29 01:45:32;;;;;;;2.63;1.90;;;10.50;99.90;9.80;99468;;;;596822;235;24063;-70
2022/05/29 01:48:09;;;;;;;2.50;2.30;;;10.50;99.90;9.70;99460;;;;597581;236;24029;-71
2022/05/29 01:51:05;;;;;;;3.33;2.63;;;10.40;99.90;9.70;99459;;;;607095;234;24084;-70
2022/05/29 01:53:33;;;;;;;3.67;2.10;;;10.40;99.90;9.70;99468;;;;595594;236;24059;-72
2022/05/29 01:56:00;;;;;;;5.47;2.23;;;10.40;99.90;9.70;99465;;;;596808;236;24092;-74
2022/05/29 01:58:31;;;;;;;6.07;2.47;;;10.40;99.90;9.70;99471;;;;596791;236;24131;-70
2022/05/29 02:00:59;;;;;;;2.63;2.00;;;10.40;99.90;9.70;99474;;;;597022;236;24051;-69
2022/05/29 02:03:28;;;;;;;4.67;2.47;;;10.40;99.90;9.60;99474;;;;596771;236;24078;-70
2022/05/29 02:05:57;;;;;;;2.80;2.00;;;10.40;99.90;9.60;99477;;;;596606;236;25135;-70
2022/05/29 02:08:33;;;;;;;4.57;2.80;;;10.40;99.90;9.70;99480;;;;596541;236;25112;-70
2022/05/29 02:11:10;;;;;;;5.12;2.83;;;10.40;99.90;9.60;99479;;;;590131;236;34983;-71
2022/05/29 02:13:38;;;;;;;3.20;2.30;;;10.40;99.90;9.60;99479;;;;596457;236;24043;-71
2022/05/29 02:16:12;;;;;;;2.57;2.37;;;10.40;99.90;9.60;99474;;;;593625;236;24151;-70
2022/05/29 02:18:52;;;;;;;2.23;2.13;;;10.40;99.90;9.60;99477;;;;596243;236;24059;-72
2022/05/29 02:21:41;;;;;;;4.27;2.20;;;10.40;99.90;9.60;99473;;;;596382;236;24120;-72
2022/05/29 02:24:11;;;;;;;2.50;2.30;;;10.40;99.90;9.60;99470;;;;596536;236;24052;-71
2022/05/29 02:26:39;;;;;;;5.23;2.33;;;10.40;99.90;9.60;99472;;;;596162;236;25089;-71
2022/05/29 02:29:10;;;;;;;2.30;2.10;;;10.30;99.90;9.50;99468;;;;596571;236;24076;-71
2022/05/29 02:32:11;;;;;;;4.60;2.33;;;10.30;99.90;9.50;99467;;;;596822;236;24027;-74
2022/05/29 02:34:42;;;;;;;3.03;2.00;;;10.30;99.90;9.50;99476;;;;584434;246;24212;-74
2022/05/29 02:37:13;;;;;;;4.50;3.05;;;10.30;99.90;9.50;99479;;;;589654;236;35003;-72
2022/05/29 02:40:04;;;;;;;2.60;2.40;;;10.30;99.90;9.50;99476;;;;596582;236;24041;-72
2022/05/29 02:42:47;;;;;;;2.83;2.50;;;10.30;99.90;9.60;99485;;;;597033;236;24049;-74
2022/05/29 02:45:39;;;;;;;2.13;1.97;;;10.30;99.90;9.60;99483;;;;596774;236;24050;-73
2022/05/29 02:48:16;;;;;;;3.20;2.13;;;10.30;99.90;9.70;99494;;;;596815;236;24164;-77
2022/05/29 02:51:02;;;;;;;1.70;1.60;;;10.40;99.90;9.70;99494;;;;597043;236;24039;-79
2022/05/29 02:53:30;;;;;;;4.10;2.00;;;10.40;99.90;9.70;99492;;;;596640;236;24033;-74
2022/05/29 02:55:58;;;;;;;2.03;1.90;;;10.50;99.90;9.70;99493;;;;597224;236;24086;-73
2022/05/29 02:58:26;;;;;;;4.07;2.10;;;10.50;99.90;9.80;99484;;;;599052;236;24024;-79
2022/05/29 03:00:57;;;;;;;2.97;1.87;;;10.50;99.90;9.80;99492;;;;598122;236;24073;-75
2022/05/29 03:03:38;;;;;;;2.27;2.07;;;10.60;99.90;9.80;99499;;;;607601;236;24046;-72
2022/05/29 03:06:18;;;;;;;2.77;2.50;;;10.50;99.90;9.80;99495;;;;597661;236;24086;-74
2022/05/29 03:09:07;;;;;;;3.90;2.40;;;10.60;99.90;9.90;99504;;;;597646;236;24050;-72
2022/05/29 03:11:44;;;;;;;2.87;2.00;;;10.60;99.90;9.90;99511;;;;598067;236;24079;-74
2022/05/29 03:14:11;;;;;;;2.80;1.73;;;10.70;99.90;9.90;99512;;;;598145;236;24052;-71
2022/05/29 03:16:51;;;;;;;6.00;2.23;;;10.70;99.90;10.00;99518;;;;607081;236;24078;-79
2022/05/29 03:19:41;;;;;;;2.80;2.20;;;10.70;99.90;10.00;99512;;;;596670;236;24045;-81
2022/05/29 03:22:18;;;;;;;4.05;2.62;;;10.80;99.90;10.10;99519;;;;585148;236;35004;-81
2022/05/29 03:24:55;;;;;;;2.40;2.20;;;10.80;99.90;10.10;99512;;;;596633;236;24047;-82
2022/05/29 03:27:26;;;;;;;3.17;1.90;;;10.80;99.90;10.10;99518;;;;595919;236;24092;-80
2022/05/29 03:30:22;;;;;;;4.17;1.83;;;10.80;99.90;10.10;99513;;;;596650;236;24058;-77
2022/05/29 03:32:53;;;;;;;2.37;1.67;;;10.90;99.90;10.20;99520;;;;597174;236;24144;-79
2022/05/29 03:35:32;;;;;;;2.47;1.70;;;10.90;99.90;10.20;99525;;;;596660;236;24088;-78
2022/05/29 03:38:00;;;;;;;1.57;1.50;;;10.90;99.90;10.20;99522;;;;597130;236;24039;-81
2022/05/29 03:40:32;;;;;;;1.97;1.87;;;11.00;99.90;10.20;99522;;;;596606;236;24032;-81
2022/05/29 03:42:57;;;;;;;1.77;1.67;;;11.00;99.90;10.30;99526;;;;596300;236;24071;-78
2022/05/29 03:45:28;;;;;;;2.37;1.80;;;11.00;99.90;10.30;99531;;;;596641;236;24025;-81
2022/05/29 03:47:55;;;;;;;2.87;1.60;;;11.00;99.90;10.40;99529;;;;596431;236;24034;-81
2022/05/29 03:50:20;;;;;;;1.90;1.80;;;11.10;99.90;10.40;99531;;;;595990;236;24104;-81
2022/05/29 03:52:48;;;;;;;2.30;1.50;;;11.20;99.90;10.50;99528;;;;595953;236;24083;-80
2022/05/29 03:55:21;;;;;;;2.77;1.97;;;11.30;99.90;10.60;99533;;;;596477;236;25080;-81
2022/05/29 03:57:49;;;;;;;1.73;1.63;;;11.30;99.90;10.80;99534;;;;605058;236;24167;-82
2022/05/29 04:00:14;;;;;;;2.83;1.80;;;11.50;99.90;10.90;99534;;;;596241;236;24038;-77
2022/05/29 04:02:43;;;;;;;2.67;2.00;;;11.60;99.90;11.00;99541;;;;596497;236;24055;-82
2022/05/29 04:05:13;;;;;;;2.43;1.50;;;11.80;99.90;11.20;99532;;;;596814;236;24059;-81
2022/05/29 04:13:10;;;;;;;3.30;1.60;;;12.10;99.90;11.50;99540;;;;598243;236;24084;-76
2022/05/29 04:15:44;;;;;;;1.70;1.60;;;12.30;99.90;11.60;99544;;;;598116;236;24104;-79
2022/05/29 04:18:05;;;;;;;2.63;2.13;;;12.30;99.90;11.70;99552;;;;597512;236;24149;-78
2022/05/29 04:20:34;;;;;;;1.60;1.50;;;12.40;99.90;11.70;99547;;;;597615;236;24091;-70
2022/05/29 04:23:03;;;;;;;1.53;1.30;;;12.40;99.90;11.70;99552;;;;597044;236;24067;-78
2022/05/29 04:25:31;;;;;;;2.07;1.50;;;12.40;99.90;11.70;99560;;;;598089;236;24028;-80
2022/05/29 04:28:01;;;;;;;2.37;1.60;;;12.40;99.90;11.70;99551;;;;597381;236;24090;-77
2022/05/29 04:30:31;;;;;;;2.70;1.80;;;12.40;99.90;11.70;99560;;;;584087;241;24092;-70
2022/05/29 04:33:02;;;;;;;1.90;1.80;;;12.40;99.90;11.70;99550;;;;595893;236;24037;-71
2022/05/29 04:35:31;;;;;;;1.80;1.60;;;12.40;99.90;11.70;99548;;;;597173;236;24048;-71
2022/05/29 04:37:58;;;;;;;2.10;1.70;;;12.40;99.90;11.70;99548;;;;597260;236;24049;-73
2022/05/29 04:40:26;;;;;;;1.50;1.50;;;12.50;99.90;11.80;99549;;;;597376;236;24083;-81
2022/05/29 04:42:54;;;;;;;1.67;1.57;;;12.50;99.90;11.90;99554;;;;597444;236;24023;-77
2022/05/29 04:45:22;;;;;;;2.20;2.00;;;12.60;99.90;12.00;99546;;;;597380;236;24048;-78
2022/05/29 04:47:53;;;;;;;1.87;1.67;;;12.70;99.90;12.00;99553;;;;597115;236;24064;-80
2022/05/29 04:50:18;;;;;;;4.20;1.77;;;12.80;99.90;12.10;99570;;;;596628;236;24078;-81
2022/05/29 04:52:46;;;;;;;2.30;1.83;;;12.80;99.90;12.10;99564;;;;597153;236;24067;-82
2022/05/29 04:55:13;;;;;;;1.57;1.53;;;12.90;99.90;12.20;99566;;;;597159;236;24053;-79
2022/05/29 04:57:41;;;;;;;3.70;1.80;;;12.90;99.90;12.20;99563;;;;597618;236;24108;-75
2022/05/29 05:00:11;;;;;;;2.33;1.77;;;12.90;99.90;12.20;99571;;;;597737;236;24063;-76
2022/05/29 05:02:39;;;;;;;3.70;1.90;;;12.90;99.90;12.20;99567;;;;597658;236;24062;-71
2022/05/29 05:05:06;;;;;;;2.20;1.77;;;12.90;99.90;12.20;99575;;;;597467;236;24072;-74
2022/05/29 05:07:35;;;;;;;1.80;1.70;;;12.90;99.90;12.20;99572;;;;597125;236;24032;-79
2022/05/29 05:10:05;;;;;;;2.00;1.80;;;12.90;99.90;12.20;99577;;;;597157;236;24024;-80
2022/05/29 05:12:33;;;;;;;2.40;1.83;;;12.90;99.90;12.20;99582;;;;597502;236;24024;-80
2022/05/29 05:15:01;;;;;;;1.90;1.80;;;12.90;99.90;12.10;99588;;;;574434;247;24117;-77
2022/05/29 05:17:29;;;;;;;1.77;1.67;;;12.80;99.90;12.10;99583;;;;599218;236;24101;-81
2022/05/29 05:19:57;;;;;;;2.20;1.67;;;12.80;99.90;12.10;99581;;;;597628;235;24072;-78
2022/05/29 05:22:25;;;;;;;2.07;1.97;;;12.80;99.90;12.10;99594;;;;598686;236;24028;-77
2022/05/29 05:24:52;;;;;;;2.57;1.93;;;12.80;99.90;12.00;99588;;;;598175;236;24094;-77
2022/05/29 05:27:20;;;;;;;4.63;2.47;;;12.80;99.90;12.00;99589;;;;597925;236;24056;-71
2022/05/29 05:29:48;;;;;;;1.50;1.50;;;12.70;99.90;11.90;99593;;;;597565;236;24092;-81
2022/05/29 05:32:16;;;;;;;2.73;2.00;;;12.60;99.90;11.80;99598;;;;597671;236;24040;-80
2022/05/29 05:34:44;;;;;;;2.23;2.07;;;12.50;99.90;11.70;99596;;;;597582;236;24040;-77
2022/05/29 05:37:12;;;;;;;3.23;2.00;;;12.40;99.90;11.70;99603;;;;597349;236;24016;-76
2022/05/29 05:39:40;;;;;;;2.77;2.47;;;12.40;99.90;11.70;99611;;;;596995;236;24132;-76
2022/05/29 05:42:08;;;;;;;4.53;2.00;;;12.40;99.90;11.70;99605;;;;597112;236;24125;-71
2022/05/29 05:44:36;;;;;;;3.80;2.20;;;12.40;99.90;11.70;99612;;;;597156;236;24101;-71
2022/05/29 05:47:04;;;;;;;2.07;1.87;;;12.40;99.90;11.80;99612;;;;596973;236;24039;-75
2022/05/29 05:49:31;;;;;;;4.70;2.03;;;12.50;99.90;11.90;99603;;;;596815;236;24045;-78
2022/05/29 05:52:03;;;;;;;3.07;2.20;;;12.50;99.90;12.10;99610;;;;597386;236;24029;-72
2022/05/29 05:54:34;;;;;;;3.03;2.50;;;12.70;99.90;12.20;99606;;;;596905;236;24084;-73
2022/05/29 05:56:58;;;;;;;3.00;2.23;;;12.80;99.90;12.30;99615;;;;596813;236;24087;-74
2022/05/29 05:59:26;;;;;;;2.20;1.80;;;13.00;99.90;12.40;99621;;;;597079;236;24039;-74
2022/05/29 06:01:56;;;;;;;2.43;2.23;;;13.10;99.90;12.50;99626;;;;597486;236;24052;-78
2022/05/29 06:04:22;;;;;;;3.47;2.37;;;13.20;99.90;12.60;99622;;;;584634;241;24063;-75
2022/05/29 06:06:53;;;;;;;4.73;2.23;;;13.30;99.90;12.70;99627;;;;594795;238;24043;-74
2022/05/29 06:09:19;;;;;;;2.13;2.00;;;13.40;99.90;12.80;99623;;;;596409;236;24092;-75
2022/05/29 06:11:46;;;;;;;5.03;3.00;;;13.50;99.90;12.90;99624;;;;584233;242;24069;-78
2022/05/29 06:14:14;;;;;;;4.03;2.20;;;13.60;99.90;13.00;99627;;;;593508;235;24081;-75
2022/05/29 06:16:42;;;;;;;2.70;2.50;;;13.70;99.90;13.20;99625;;;;596042;236;24040;-78
2022/05/29 06:19:10;;;;;;;5.40;2.50;;;13.90;99.90;13.40;99625;;;;596201;236;24074;-76
2022/05/29 06:21:38;;;;;;;5.07;3.63;;;14.10;99.90;13.50;99626;;;;596061;236;24074;-78
2022/05/29 06:24:09;;;;;;;4.97;2.23;;;14.20;99.90;13.70;99623;;;;595968;236;24011;-77
2022/05/29 06:26:33;;;;;;;2.50;2.30;;;14.40;99.90;13.90;99629;;;;595978;236;24051;-79
2022/05/29 06:29:04;;;;;;;4.73;2.53;;;14.60;99.90;14.10;99630;;;;596172;236;24058;-81
2022/05/29 06:31:33;;;;;;;4.57;2.23;;;14.80;99.90;14.40;99636;;;;596844;234;24037;-79
2022/05/29 06:33:57;;;;;;;3.10;2.23;;;15.00;99.90;14.60;99645;;;;597528;236;24053;-79
2022/05/29 06:36:28;;;;;;;2.37;2.17;;;15.30;99.90;14.70;99639;;;;597488;236;24061;-74
2022/05/29 06:38:57;;;;;;;2.87;2.67;;;15.40;99.90;14.80;99647;;;;596616;236;24117;-74
2022/05/29 06:41:21;;;;;;;3.67;2.47;;;15.50;99.90;15.00;99642;;;;596008;236;24111;-73
2022/05/29 06:43:52;;;;;;;6.40;2.47;;;15.70;99.90;15.20;99646;;;;596681;236;24087;-73
2022/05/29 06:46:17;;;;;;;2.63;2.40;;;15.90;99.90;15.40;99647;;;;596508;236;25111;-76
2022/05/29 06:48:45;;;;;;;2.70;2.23;;;16.10;99.90;15.60;99651;;;;596877;234;24027;-74
2022/05/29 06:51:12;;;;;;;2.30;2.20;;;16.30;99.90;15.80;99647;;;;596481;236;24054;-73
2022/05/29 06:53:40;;;;;;;2.47;2.00;;;16.50;99.90;15.90;99638;;;;596426;236;24101;-75
2022/05/29 06:56:12;;;;;;;3.60;1.70;;;16.60;99.90;16.00;99639;;;;596924;236;24036;-78
2022/05/29 06:58:38;;;;;;;2.97;1.97;;;16.70;99.90;16.10;99630;;;;596514;236;24073;-77
2022/05/29 07:09:28;;;;;;;2.43;1.67;;;17.50;99.90;16.90;99645;;;;592238;238;24031;-77
2022/05/29 07:12:05;;;;;;;3.83;2.00;;;17.50;99.90;17.40;99641;;;;590550;239;24108;-79
2022/05/29 07:14:33;;;;;;;3.90;2.13;;;17.90;99.90;18.20;99649;;;;590879;239;24027;-79
2022/05/29 07:17:01;;;;;;;2.07;1.87;;;18.70;99.90;19.10;99655;;;;587666;239;24080;-79
2022/05/29 07:19:29;;;;;;;3.57;2.30;;;19.50;99.90;20.20;99655;;;;591166;239;24029;-77
2022/05/29 07:21:57;;;;;;;4.73;2.00;;;20.50;99.90;21.10;99666;;;;590995;239;24076;-80
2022/05/29 07:24:28;;;;;;;3.37;2.70;;;22.40;99.90;22.00;99668;;;;600231;239;24030;-79
2022/05/29 07:26:53;;;;;;;2.00;1.70;;;22.40;99.90;23.10;99668;;;;599871;235;24106;-79
2022/05/29 07:29:24;;;;;;;3.77;2.00;;;23.40;99.90;24.70;99669;;;;590853;239;24076;-77
2022/05/29 07:31:52;;;;;;;5.17;1.87;;;25.00;97.70;25.40;99674;;;;600315;239;23161;-77
2022/05/29 07:34:20;;;;;;;3.65;2.05;;;26.00;92.10;25.10;99679;;;;595275;239;35094;-80
2022/05/29 07:36:49;;;;;;;3.80;1.80;;;25.90;85.80;24.20;99681;;;;591970;238;23088;-77
2022/05/29 07:39:16;;;;;;;4.13;1.87;;;25.30;84.10;23.30;99677;;;;592605;238;23060;-81
2022/05/29 07:44:29;;;;;;;5.00;1.83;;;24.50;87.50;25.00;99680;;;;592609;238;23037;-78
2022/05/29 07:46:57;;;;;;;1.57;1.47;;;25.50;84.40;24.90;99674;;;;592656;238;23086;-79
2022/05/29 07:49:25;;;;;;;2.80;1.70;;;25.60;79.70;24.30;99681;;;;571453;248;23262;-80
2022/05/29 07:51:53;;;;;;;2.43;1.37;;;25.20;79.10;25.00;99686;;;;594244;238;23071;-79
2022/05/29 07:54:22;;;;;;;1.40;1.30;;;25.50;79.30;25.40;99681;;;;571058;248;23153;-77
2022/05/29 07:56:52;;;;;;;2.50;1.57;;;25.90;77.40;26.30;99694;;;;580100;244;23143;-74
2022/05/29 07:59:18;;;;;;;3.27;2.17;;;26.70;75.20;25.80;99694;;;;593170;238;23086;-80
2022/05/29 08:01:47;;;;;;;1.70;1.60;;;26.60;71.40;24.30;99697;;;;592800;238;23043;-79
2022/05/29 08:04:13;;;;;;;3.60;1.60;;;25.50;71.40;23.20;99702;;;;592236;238;24093;-75
2022/05/29 08:06:40;;;;;;;3.33;1.80;;;24.30;74.20;22.30;99701;;;;571559;248;24069;-80
2022/05/29 08:09:08;;;;;;;2.03;1.77;;;23.30;77.30;21.50;99708;;;;592073;238;23059;-77
2022/05/29 08:11:36;;;;;;;2.70;2.07;;;22.40;80.90;20.80;99707;;;;591655;239;24039;-77
2022/05/29 08:14:05;;;;;;;2.60;2.03;;;20.80;86.70;19.90;99700;;;;591016;239;24125;-78
2022/05/29 08:16:36;;;;;;;3.37;2.00;;;20.80;86.70;19.40;99705;;;;591329;239;24030;-74
2022/05/29 08:19:01;;;;;;;4.73;2.00;;;20.20;89.80;19.10;99709;;;;591196;239;24047;-85
2022/05/29 08:21:29;;;;;;;2.07;1.90;;;19.80;91.00;18.90;99712;;;;591605;239;23072;-83
2022/05/29 08:32:13;;;;;;;2.03;1.63;;;19.00;93.40;18.60;99715;;;;592143;239;24076;-83
2022/05/29 08:34:43;;;;;;;2.70;1.77;;;19.10;93.60;18.60;99712;;;;591187;239;24051;-80
2022/05/29 08:37:10;;;;;;;2.23;1.50;;;19.10;94.00;18.90;99721;;;;591032;239;24053;-75
2022/05/29 08:39:38;;;;;;;3.03;2.77;;;19.40;93.80;19.40;99710;;;;591604;239;24019;-83
2022/05/29 08:42:05;;;;;;;2.90;2.00;;;19.70;93.00;19.80;99726;;;;570688;249;24123;-82
2022/05/29 08:44:40;;;;;;;2.50;1.93;;;20.20;92.50;20.20;99717;;;;591566;239;23094;-84
2022/05/29 08:47:07;;;;;;;1.97;1.77;;;20.70;92.30;20.70;99723;;;;591973;239;23006;-81
2022/05/29 08:49:35;;;;;;;1.77;1.17;;;21.20;91.20;21.10;99729;;;;591484;239;24037;-84
2022/05/29 08:52:39;;;;;;;3.27;1.93;;;21.60;89.10;21.20;99730;;;;570334;249;24089;-83
2022/05/29 08:55:20;;;;;;;3.70;1.80;;;22.10;88.30;21.50;99732;;;;592154;238;24034;-77
2022/05/29 08:58:18;;;;;;;3.63;1.90;;;22.00;87.50;21.90;99734;;;;592439;238;24028;-80
2022/05/29 09:01:16;;;;;;;3.00;1.70;;;22.50;88.20;22.50;99738;;;;592568;238;24025;-80
2022/05/29 09:03:50;;;;;;;2.90;2.00;;;23.00;84.70;23.30;99738;;;;592812;239;24128;-80
2022/05/29 09:06:29;;;;;;;6.67;1.80;;;23.80;83.00;24.50;99734;;;;600201;239;24033;-82
2022/05/29 09:09:09;;;;;;;3.90;3.27;;;24.80;78.80;25.20;99736;;;;592453;239;23117;-81
2022/05/29 09:11:51;;;;;;;2.37;1.70;;;25.70;74.80;25.70;99740;;;;592147;239;23046;-78
2022/05/29 09:14:44;;;;;;;1.33;1.23;;;26.20;73.30;26.40;99753;;;;592451;239;23058;-79
2022/05/29 09:17:26;;;;;;;1.73;1.47;;;27.10;70.40;27.40;99746;;;;592203;239;23042;-75
2022/05/29 09:19:58;;;;;;;2.90;1.50;;;29.40;63.70;29.00;99745;;;;591656;239;23050;-78
2022/05/29 09:22:38;;;;;;;2.30;1.40;;;29.40;62.70;30.30;99743;;;;590304;239;23059;-76
2022/05/29 09:25:33;;;;;;;1.42;1.33;;;30.80;58.90;31.40;99755;;;;589102;239;24048;-81
2022/05/29 09:28:01;;;;;;;1.77;1.45;;;32.10;55.70;31.30;99747;;;;569689;248;23115;-77
2022/05/29 09:30:29;;;;;;;1.85;1.20;;;32.30;53.30;31.40;99757;;;;591916;239;23045;-75
2022/05/29 09:32:57;;;;;;;1.05;0.95;;;32.20;52.00;32.10;99750;;;;591950;239;24049;-79
2022/05/29 09:35:25;;;;;;;3.00;1.45;;;32.80;50.40;33.90;99744;;;;586725;239;45855;-78
2022/05/29 09:38:14;;;;;;;1.25;1.15;;;34.50;48.80;33.70;99759;;;;591468;239;23067;-78
2022/05/29 09:40:42;;;;;;;2.35;1.37;;;34.80;46.80;33.10;99750;;;;586440;239;34942;-83
2022/05/29 09:43:13;;;;;;;1.35;1.25;;;34.40;45.70;32.80;99758;;;;600053;239;23129;-81
2022/05/29 09:45:40;;;;;;;3.30;1.37;;;34.00;45.90;32.70;99757;;;;591837;239;24101;-80
2022/05/29 09:51:13;;;;;;;1.35;1.15;;;32.80;46.20;32.40;99763;;;;591606;239;23044;-83
2022/05/29 09:53:52;;;;;;;3.65;1.58;;;33.00;48.20;34.20;99753;;;;590810;239;23104;-83
2022/05/29 09:56:23;;;;;;;2.85;1.55;;;34.60;46.50;34.80;99765;;;;569956;249;23114;-83
2022/05/29 09:59:02;;;;;;;1.35;1.25;;;35.70;44.20;33.80;99759;;;;591206;239;23132;-82
2022/05/29 10:01:38;;;;;;;3.12;1.62;;;35.10;44.20;33.00;99761;;;;589519;239;23181;-78
2022/05/29 10:04:04;;;;;;;1.37;1.12;;;34.20;44.90;32.30;99768;;;;567089;249;23162;-75
2022/05/29 10:06:35;;;;;;;3.42;1.50;;;33.40;45.90;30.90;99770;;;;591832;238;24055;-82
2022/05/29 10:09:18;;;;;;;1.75;1.33;;;32.30;46.30;30.70;99772;;;;602899;237;23073;-84
2022/05/29 10:11:46;;;;;;;2.35;1.20;;;31.60;47.20;30.80;99781;;;;592738;238;23067;-80
2022/05/29 10:14:22;;;;;;;2.20;1.30;;;31.60;47.60;31.20;99780;;;;591470;238;23046;-81
2022/05/29 10:16:50;;;;;;;3.67;1.27;;;31.90;47.40;31.00;99786;;;;592300;239;23065;-82
2022/05/29 10:19:39;;;;;;;1.73;1.20;;;31.80;47.00;31.60;99789;;;;591862;239;23069;-78
2022/05/29 10:22:41;;;;;;;2.90;1.12;;;32.10;48.20;32.20;99784;;;;600785;239;23080;-80
2022/05/29 10:25:14;;;;;;;1.25;1.15;;;32.90;47.10;32.00;99790;;;;591552;239;23213;-80
2022/05/29 10:27:42;;;;;;;2.75;1.40;;;32.80;47.20;32.00;99791;;;;567222;249;23169;-80
2022/05/29 10:30:10;;;;;;;0.93;0.88;;;32.80;47.00;31.30;99790;;;;600137;238;23157;-81
2022/05/29 10:32:38;;;;;;;2.05;1.30;;;32.20;46.90;30.90;99787;;;;591077;239;23113;-79
2022/05/29 10:35:18;;;;;;;2.47;1.60;;;31.60;48.00;30.60;99792;;;;590719;239;24160;-81
2022/05/29 10:37:51;;;;;;;3.55;1.33;;;30.60;48.20;29.80;99789;;;;584616;239;23159;-81
2022/05/29 10:40:31;;;;;;;1.60;1.30;;;30.50;48.20;28.70;99791;;;;599930;238;24082;-80
2022/05/29 10:43:00;;;;;;;3.60;1.55;;;29.60;48.90;27.20;99791;;;;584007;239;34967;-79
2022/05/29 10:45:31;;;;;;;2.67;1.60;;;28.30;51.00;26.10;99791;;;;598820;239;24039;-81
2022/05/29 10:48:05;;;;;;;3.17;1.40;;;27.10;52.70;25.30;99792;;;;599868;239;23055;-78
2022/05/29 10:51:12;;;;;;;2.50;1.40;;;26.20;54.10;24.70;99795;;;;590929;239;23040;-79
2022/05/29 10:54:01;;;;;;;1.47;1.37;;;25.40;55.40;23.80;99794;;;;591111;239;23079;-76
2022/05/29 10:56:35;;;;;;;2.47;0.90;;;24.40;57.10;23.10;99789;;;;590660;239;24050;-81
2022/05/29 10:59:18;;;;;;;2.87;1.33;;;23.70;58.90;22.60;99787;;;;597876;239;23063;-85
2022/05/29 11:05:17;;;;;;;161.77;13.27;;;22.70;61.50;22.00;99782;;;;591431;239;24029;-74
2022/05/29 11:08:06;;;;;;;19.57;2.03;;;22.40;67.60;21.80;99792;;;;587318;239;24073;-82
2022/05/29 11:10:56;;;;;;;7.43;1.80;;;22.20;69.10;21.60;99788;;;;591368;239;23053;-77
2022/05/29 11:13:39;;;;;;;1.20;1.20;;;21.70;67.90;21.40;99778;;;;589337;237;24030;-79
2022/05/29 11:16:09;;;;;;;3.13;1.20;;;21.60;67.90;21.40;99787;;;;567684;249;23172;-76
2022/05/29 11:19:08;;;;;;;14.17;2.33;;;21.70;67.80;21.40;99788;;;;599825;238;24109;-77
2022/05/29 11:22:03;;;;;;;3.30;1.50;;;21.80;67.40;21.30;99796;;;;601894;238;24073;-75
2022/05/29 11:25:06;;;;;;;1.40;1.30;;;21.80;66.60;21.30;99791;;;;590014;238;24056;-79
2022/05/29 11:27:53;;;;;;;1.40;1.30;;;21.80;68.60;21.40;99790;;;;592391;239;24082;-83
2022/05/29 11:30:48;;;;;;;1.43;1.33;;;21.80;69.30;21.60;99793;;;;591863;239;24103;-76
2022/05/29 11:33:24;;;;;;;1.23;1.10;;;22.00;70.20;21.60;99800;;;;592641;239;24067;-76
2022/05/29 11:36:05;;;;;;;3.73;1.73;;;22.10;69.60;21.40;99801;;;;592542;239;23071;-75
2022/05/29 11:38:40;;;;;;;1.63;1.40;;;22.00;69.40;21.60;99799;;;;592313;239;24194;-83
2022/05/29 11:41:08;;;;;;;3.33;1.97;;;22.10;69.80;21.80;99794;;;;592456;239;24232;-83
2022/05/29 11:43:51;;;;;;;2.20;1.43;;;22.30;69.80;21.90;99792;;;;591722;239;24061;-81
2022/05/29 11:51:53;;;;;;;3.20;1.70;;;22.60;69.50;22.00;99783;;;;595202;239;24014;-77
2022/05/29 11:54:36;;;;;;;2.00;1.67;;;22.70;69.10;21.80;99789;;;;578638;248;24116;-81
2022/05/29 11:57:13;;;;;;;1.50;1.40;;;22.60;69.10;21.40;99784;;;;593575;238;24053;-81
2022/05/29 11:59:56;;;;;;;6.77;1.80;;;22.20;70.50;20.80;99792;;;;591944;239;23079;-84
2022/05/29 12:02:41;;;;;;;2.17;1.30;;;21.70;71.90;20.30;99790;;;;592257;239;23114;-83
2022/05/29 12:05:24;;;;;;;1.20;1.10;;;21.10;73.50;19.90;99798;;;;591877;239;24093;-84
2022/05/29 12:08:04;;;;;;;1.40;1.30;;;20.60;75.20;19.30;99806;;;;590590;239;24066;-80
2022/05/29 12:10:38;;;;;;;4.43;2.00;;;20.10;77.90;18.80;99808;;;;590176;239;23087;-79
2022/05/29 12:13:05;;;;;;;3.60;1.97;;;19.50;82.60;18.30;99809;;;;588241;239;24046;-81
2022/05/29 12:15:36;;;;;;;4.33;2.30;;;19.00;90.00;17.70;99817;;;;591326;239;24091;-83
2022/05/29 12:18:10;;;;;;;4.63;2.53;;;18.50;95.70;16.90;99812;;;;591108;239;24096;-82
2022/05/29 12:20:41;;;;;;;4.40;1.80;;;16.90;99.90;16.00;99826;;;;591298;239;24059;-81
2022/05/29 12:23:27;;;;;;;3.60;2.20;;;16.80;99.90;15.30;99827;;;;591228;239;24080;-81
2022/05/29 12:26:06;;;;;;;10.23;2.77;;;16.10;99.90;14.60;99824;;;;589356;239;24069;-78